createdAt,value
2018-09-13T00:01:19.749Z,77.90
2018-09-13T00:03:50.968Z,77.90
2018-09-13T00:06:22.007Z,77.60
2018-09-13T00:08:53.270Z,77.20
2018-09-13T00:11:24.172Z,77.20
2018-09-13T00:13:54.951Z,76.90
2018-09-13T00:16:25.945Z,76.80
2018-09-13T00:18:56.816Z,76.70
2018-09-13T00:21:27.598Z,76.50
2018-09-13T00:23:58.386Z,76.50
2018-09-13T00:26:29.205Z,76.40
2018-09-13T00:29:00.853Z,76.40
2018-09-13T00:31:31.878Z,76.50
2018-09-13T00:34:02.958Z,76.50
2018-09-13T00:36:33.945Z,76.50
2018-09-13T00:39:06.252Z,76.50
2018-09-13T00:41:38.596Z,76.20
2018-09-13T00:44:09.545Z,76.40
2018-09-13T00:46:40.619Z,76.50
2018-09-13T00:49:11.551Z,76.50
2018-09-13T00:51:42.534Z,76.60
2018-09-13T00:54:13.603Z,76.60
2018-09-13T00:56:44.611Z,76.50
2018-09-13T00:59:15.574Z,76.70
2018-09-13T01:01:46.444Z,76.60
2018-09-13T01:04:17.326Z,77.00
2018-09-13T01:06:48.339Z,76.80
2018-09-13T01:09:19.174Z,77.00
2018-09-13T01:11:49.933Z,77.20
2018-09-13T01:14:20.709Z,77.20
2018-09-13T01:16:51.597Z,77.40
2018-09-13T01:19:22.515Z,77.40
2018-09-13T01:21:53.299Z,77.40
2018-09-13T01:24:24.169Z,77.90
2018-09-13T01:26:55.067Z,78.10
2018-09-13T01:29:26.038Z,78.50
2018-09-13T01:31:57.288Z,78.70
2018-09-13T01:34:28.164Z,78.80
2018-09-13T01:36:59.299Z,79.30
2018-09-13T01:39:30.048Z,79.30
2018-09-13T01:42:00.858Z,79.70
2018-09-13T01:44:32.042Z,80.10
2018-09-13T01:47:02.904Z,81.10
2018-09-13T01:49:33.685Z,80.20
2018-09-13T01:52:04.499Z,80.20
2018-09-13T01:54:35.810Z,80.20
2018-09-13T01:57:06.887Z,80.30
2018-09-13T01:59:37.696Z,80.20
2018-09-13T02:02:08.466Z,80.70
2018-09-13T02:04:39.444Z,80.60
2018-09-13T02:07:10.223Z,81.00
2018-09-13T02:09:41.047Z,81.00
2018-09-13T02:12:11.849Z,81.40
2018-09-13T02:14:42.594Z,81.20
2018-09-13T02:17:13.495Z,81.30
2018-09-13T02:19:44.286Z,81.40
2018-09-13T02:22:15.247Z,81.50
2018-09-13T02:24:45.993Z,81.30
2018-09-13T02:27:16.769Z,81.20
2018-09-13T02:29:47.563Z,81.60
2018-09-13T02:32:18.278Z,81.60
2018-09-13T02:34:49.360Z,81.70
2018-09-13T02:37:20.199Z,81.50
2018-09-13T02:39:51.000Z,81.60
2018-09-13T02:42:22.018Z,82.50
2018-09-13T02:44:54.365Z,83.00
2018-09-13T02:47:25.133Z,83.10
2018-09-13T02:49:56.318Z,83.00
2018-09-13T02:52:27.053Z,83.20
2018-09-13T02:54:57.767Z,83.00
2018-09-13T02:57:28.599Z,82.90
2018-09-13T02:59:59.572Z,83.10
2018-09-13T03:02:30.647Z,83.30
2018-09-13T03:05:01.594Z,83.70
2018-09-13T03:07:32.377Z,84.30
2018-09-13T03:10:03.270Z,84.00
2018-09-13T03:12:34.007Z,84.40
2018-09-13T03:15:05.128Z,84.10
2018-09-13T03:17:36.158Z,84.20
2018-09-13T03:20:07.424Z,84.50
2018-09-13T03:22:38.452Z,85.00
2018-09-13T03:25:09.639Z,85.00
2018-09-13T03:27:40.864Z,84.70
2018-09-13T03:30:12.395Z,84.80
2018-09-13T03:32:43.575Z,85.20
2018-09-13T03:35:14.662Z,85.60
2018-09-13T03:37:45.818Z,85.90
2018-09-13T03:40:16.769Z,85.70
2018-09-13T03:42:47.819Z,85.30
2018-09-13T03:45:18.759Z,85.40
2018-09-13T03:47:49.721Z,85.00
2018-09-13T03:50:20.568Z,84.80
2018-09-13T03:52:51.399Z,84.80
2018-09-13T03:55:22.260Z,84.80
2018-09-13T03:57:53.261Z,85.30
2018-09-13T04:00:24.271Z,85.50
2018-09-13T04:02:55.276Z,85.30
2018-09-13T04:05:26.190Z,85.40
2018-09-13T04:07:57.138Z,85.40
2018-09-13T04:10:28.090Z,85.60
2018-09-13T04:12:59.124Z,86.20
2018-09-13T04:15:30.211Z,85.70
2018-09-13T04:18:01.111Z,85.30
2018-09-13T04:20:32.140Z,85.50
2018-09-13T04:23:03.373Z,85.50
2018-09-13T04:25:34.453Z,85.50
2018-09-13T04:28:05.605Z,85.50
2018-09-13T04:30:36.560Z,85.10
2018-09-13T04:33:07.813Z,86.30
2018-09-13T04:35:39.681Z,86.60
2018-09-13T04:38:10.477Z,86.50
2018-09-13T04:40:41.423Z,86.60
2018-09-13T04:43:12.674Z,86.50
2018-09-13T04:45:43.814Z,86.50
2018-09-13T04:48:14.927Z,86.60
2018-09-13T04:50:46.372Z,86.10
2018-09-13T04:53:17.270Z,86.10
2018-09-13T04:55:48.292Z,85.90
2018-09-13T04:58:19.282Z,86.00
2018-09-13T05:00:50.298Z,86.20
2018-09-13T05:03:21.129Z,85.90
2018-09-13T05:05:52.025Z,85.40
2018-09-13T05:08:22.944Z,85.80
2018-09-13T05:10:54.027Z,85.50
2018-09-13T05:13:24.947Z,85.40
2018-09-13T05:15:56.255Z,85.20
2018-09-13T05:18:27.638Z,84.80
2018-09-13T05:20:58.686Z,84.10
2018-09-13T05:23:30.176Z,84.30
2018-09-13T05:26:01.211Z,83.70
2018-09-13T05:28:32.318Z,83.30
2018-09-13T05:31:03.433Z,83.00
2018-09-13T05:33:34.296Z,81.80
2018-09-13T05:36:05.314Z,82.00
2018-09-13T05:38:36.481Z,81.60
2018-09-13T05:41:07.765Z,81.80
2018-09-13T05:43:38.689Z,81.50
2018-09-13T05:46:09.864Z,80.60
2018-09-13T05:48:40.881Z,80.20
2018-09-13T05:51:12.012Z,79.40
2018-09-13T05:53:43.045Z,78.10
2018-09-13T05:56:14.427Z,76.90
2018-09-13T05:58:45.515Z,75.60
2018-09-13T06:01:16.624Z,74.90
2018-09-13T06:03:47.570Z,73.50
2018-09-13T06:06:18.585Z,71.40
2018-09-13T06:08:49.721Z,70.70
2018-09-13T06:11:20.784Z,68.90
2018-09-13T06:13:51.901Z,69.20
2018-09-13T06:16:23.124Z,69.00
2018-09-13T06:18:54.249Z,67.90
2018-09-13T06:21:25.183Z,68.10
2018-09-13T06:23:56.292Z,68.40
2018-09-13T06:26:28.257Z,67.50
2018-09-13T06:28:59.310Z,66.40
2018-09-13T06:31:30.309Z,65.60
2018-09-13T06:34:01.660Z,65.20
2018-09-13T06:36:32.705Z,64.00
2018-09-13T06:39:04.112Z,63.40
2018-09-13T06:41:35.094Z,64.30
2018-09-13T06:44:06.145Z,64.40
2018-09-13T06:46:37.110Z,64.50
2018-09-13T06:49:08.499Z,64.70
2018-09-13T06:51:39.403Z,64.40
2018-09-13T06:54:10.594Z,64.00
2018-09-13T06:56:41.655Z,63.00
2018-09-13T06:59:12.663Z,62.50
2018-09-13T07:01:43.617Z,61.20
2018-09-13T07:04:14.679Z,60.50
2018-09-13T07:06:45.772Z,61.30
2018-09-13T07:09:16.776Z,61.50
2018-09-13T07:11:47.789Z,61.90
2018-09-13T07:14:18.746Z,60.90
2018-09-13T07:16:49.821Z,62.00
2018-09-13T07:19:20.936Z,60.00
2018-09-13T07:21:51.915Z,59.70
2018-09-13T07:24:22.827Z,59.40
2018-09-13T07:26:54.170Z,60.00
2018-09-13T07:29:25.137Z,60.60
2018-09-13T07:31:56.319Z,61.30
2018-09-13T07:34:27.215Z,59.80
2018-09-13T07:36:58.254Z,59.40
2018-09-13T07:39:29.329Z,59.90
2018-09-13T07:42:00.437Z,60.30
2018-09-13T07:44:31.443Z,60.90
2018-09-13T07:47:02.454Z,61.20
2018-09-13T07:49:33.661Z,62.00
2018-09-13T07:52:04.838Z,62.00
2018-09-13T07:54:36.014Z,63.10
2018-09-13T07:57:06.970Z,63.20
2018-09-13T07:59:38.410Z,63.80
2018-09-13T08:02:09.423Z,64.20
2018-09-13T08:04:40.423Z,64.80
2018-09-13T08:07:11.411Z,64.10
2018-09-13T08:09:42.370Z,62.50
2018-09-13T08:12:13.572Z,63.20
2018-09-13T08:14:44.477Z,61.30
2018-09-13T08:17:15.649Z,61.50
2018-09-13T08:19:46.822Z,60.70
2018-09-13T08:22:17.772Z,59.60
2018-09-13T08:24:49.042Z,59.60
2018-09-13T08:27:20.300Z,58.90
2018-09-13T08:29:51.576Z,58.50
2018-09-13T08:32:22.849Z,58.90
2018-09-13T08:34:54.091Z,58.10
2018-09-13T08:37:25.244Z,58.00
2018-09-13T08:39:56.472Z,57.70
2018-09-13T08:42:27.474Z,57.70
2018-09-13T08:44:58.674Z,57.00
2018-09-13T08:47:29.875Z,56.90
2018-09-13T08:50:01.301Z,55.80
2018-09-13T08:52:32.527Z,55.60
2018-09-13T08:55:03.655Z,55.30
2018-09-13T08:57:34.552Z,55.30
2018-09-13T09:00:07.204Z,54.80
2018-09-13T09:02:38.336Z,55.10
2018-09-13T09:05:09.829Z,56.10
2018-09-13T09:07:41.320Z,54.40
2018-09-13T09:10:12.312Z,53.90
2018-09-13T09:12:43.531Z,54.60
2018-09-13T09:15:14.617Z,54.70
2018-09-13T09:17:45.714Z,53.90
2018-09-13T09:20:17.484Z,54.90
2018-09-13T09:22:48.613Z,53.40
2018-09-13T09:25:19.655Z,54.80
2018-09-13T09:27:50.718Z,55.30
2018-09-13T09:30:22.340Z,55.20
2018-09-13T09:32:53.690Z,55.90
2018-09-13T09:35:25.044Z,56.70
2018-09-13T09:37:56.118Z,54.60
2018-09-13T09:40:27.025Z,54.30
2018-09-13T09:42:58.749Z,54.60
2018-09-13T09:45:29.969Z,52.60
2018-09-13T09:48:00.992Z,52.90
2018-09-13T09:50:32.137Z,53.70
2018-09-13T09:53:03.236Z,53.70
2018-09-13T09:55:34.457Z,53.90
2018-09-13T09:58:05.792Z,54.20
2018-09-13T10:00:41.668Z,53.70
2018-09-13T10:03:12.633Z,52.60
2018-09-13T10:05:43.549Z,51.60
2018-09-13T10:08:14.596Z,52.40
2018-09-13T10:10:45.598Z,52.80
2018-09-13T10:13:16.480Z,53.80
2018-09-13T10:15:52.518Z,53.60
2018-09-13T10:18:28.680Z,52.50
2018-09-13T10:21:04.843Z,51.80
2018-09-13T10:23:40.905Z,51.20
2018-09-13T10:26:16.920Z,50.30
2018-09-13T10:28:53.157Z,49.30
2018-09-13T10:31:28.931Z,50.70
2018-09-13T10:34:05.080Z,52.40
2018-09-13T10:36:41.265Z,51.90
2018-09-13T10:39:17.253Z,52.20
2018-09-13T10:41:53.385Z,52.70
2018-09-13T10:44:29.542Z,52.50
2018-09-13T10:47:05.655Z,52.30
2018-09-13T10:49:41.661Z,52.20
2018-09-13T10:52:17.022Z,50.90
2018-09-13T10:54:48.150Z,50.00
2018-09-13T10:57:24.069Z,51.10
2018-09-13T10:59:55.071Z,51.60
2018-09-13T11:02:26.157Z,51.60
2018-09-13T11:04:57.432Z,52.20
2018-09-13T11:07:28.389Z,51.30
2018-09-13T11:09:59.355Z,51.80
2018-09-13T11:12:34.464Z,51.20
2018-09-13T11:15:09.749Z,51.40
2018-09-13T11:17:41.026Z,51.20
2018-09-13T11:20:12.022Z,50.70
2018-09-13T11:22:42.949Z,49.50
2018-09-13T11:25:13.988Z,49.10
2018-09-13T11:27:45.005Z,48.90
2018-09-13T11:30:15.980Z,48.80
2018-09-13T11:32:47.159Z,49.70
2018-09-13T11:35:18.208Z,47.90
2018-09-13T11:37:49.161Z,47.90
2018-09-13T11:40:20.529Z,46.80
2018-09-13T11:42:51.534Z,45.90
2018-09-13T11:45:22.690Z,46.10
2018-09-13T11:47:53.759Z,47.40
2018-09-13T11:50:24.830Z,47.60
2018-09-13T11:52:55.859Z,47.50
2018-09-13T11:55:26.937Z,48.00
2018-09-13T11:57:58.048Z,48.30
2018-09-13T12:00:29.124Z,46.90
2018-09-13T12:03:01.165Z,47.10
2018-09-13T12:05:36.577Z,47.20
2018-09-13T12:08:09.387Z,45.50
2018-09-13T12:10:40.439Z,44.80
2018-09-13T12:13:11.891Z,45.60
2018-09-13T12:15:43.003Z,44.60
2018-09-13T12:18:27.258Z,46.20
2018-09-13T12:20:58.328Z,44.30
2018-09-13T12:23:29.885Z,43.60
2018-09-13T12:26:09.095Z,43.50
2018-09-13T12:28:40.522Z,44.70
2018-09-13T12:31:11.535Z,45.20
2018-09-13T12:33:42.664Z,44.60
2018-09-13T12:36:29.010Z,45.50
2018-09-13T12:39:00.112Z,46.10
2018-09-13T12:41:31.520Z,46.00
2018-09-13T12:44:02.775Z,46.40
2018-09-13T12:46:34.409Z,47.00
2018-09-13T12:49:05.909Z,46.10
2018-09-13T12:51:37.531Z,45.60
2018-09-13T12:54:08.860Z,46.00
2018-09-13T12:56:40.064Z,45.10
2018-09-13T12:59:17.623Z,45.50
2018-09-13T13:01:48.699Z,46.10
2018-09-13T13:04:20.026Z,46.70
2018-09-13T13:06:51.478Z,46.80
2018-09-13T13:09:22.540Z,47.20
2018-09-13T13:11:53.985Z,47.70
2018-09-13T13:15:54.500Z,46.30
2018-09-13T13:18:25.752Z,46.50
2018-09-13T13:20:56.886Z,45.30
2018-09-13T13:23:29.755Z,45.80
2018-09-13T13:26:01.185Z,46.10
2018-09-13T13:28:32.353Z,44.90
2018-09-13T13:31:03.334Z,44.20
2018-09-13T13:33:34.294Z,45.10
2018-09-13T13:36:05.516Z,45.20
2018-09-13T13:38:36.705Z,45.90
2018-09-13T13:41:07.730Z,46.10
2018-09-13T13:43:39.140Z,45.20
2018-09-13T13:46:10.158Z,45.20
2018-09-13T13:48:41.285Z,45.30
2018-09-13T13:51:12.476Z,44.60
2018-09-13T13:53:43.482Z,46.90
2018-09-13T13:56:14.666Z,48.50
2018-09-13T13:58:45.573Z,48.90
2018-09-13T14:01:16.509Z,49.30
2018-09-13T14:03:47.569Z,49.20
2018-09-13T14:06:18.739Z,49.40
2018-09-13T14:08:50.114Z,49.00
2018-09-13T14:11:21.243Z,48.50
2018-09-13T14:13:52.457Z,48.60
2018-09-13T14:16:23.862Z,48.90
2018-09-13T14:18:54.790Z,49.30
2018-09-13T14:21:25.694Z,49.10
2018-09-13T14:23:56.829Z,49.10
2018-09-13T14:26:28.329Z,48.50
2018-09-13T14:28:59.434Z,48.60
2018-09-13T14:31:30.381Z,48.70
2018-09-13T14:34:01.487Z,48.00
2018-09-13T14:36:32.859Z,48.80
2018-09-13T14:39:05.985Z,48.50
2018-09-13T14:41:37.373Z,47.40
2018-09-13T14:44:08.582Z,47.30
2018-09-13T14:46:39.851Z,48.00
2018-09-13T14:49:10.795Z,49.30
2018-09-13T14:51:41.839Z,48.90
2018-09-13T14:54:12.715Z,49.20
2018-09-13T14:56:43.715Z,50.00
2018-09-13T14:59:14.756Z,48.80
2018-09-13T15:01:46.134Z,49.00
2018-09-13T15:04:17.118Z,49.50
2018-09-13T15:06:48.781Z,49.70
2018-09-13T15:09:19.747Z,50.20
2018-09-13T15:11:50.720Z,50.60
2018-09-13T15:14:22.106Z,50.20
2018-09-13T15:16:53.412Z,50.20
2018-09-13T15:19:24.339Z,50.00
2018-09-13T15:21:55.407Z,50.50
2018-09-13T15:24:26.555Z,51.40
2018-09-13T15:26:58.233Z,52.10
2018-09-13T15:29:29.399Z,52.20
2018-09-13T15:32:00.686Z,52.70
2018-09-13T15:34:31.954Z,52.20
2018-09-13T15:37:03.481Z,52.10
2018-09-13T15:39:34.553Z,52.20
2018-09-13T15:42:05.917Z,52.30
2018-09-13T15:44:37.215Z,52.50
2018-09-13T15:47:08.448Z,53.00
2018-09-13T15:49:39.630Z,53.60
2018-09-13T15:52:11.023Z,53.80
2018-09-13T15:54:42.107Z,53.80
2018-09-13T15:57:13.198Z,54.00
2018-09-13T15:59:44.274Z,54.50
2018-09-13T16:02:15.407Z,54.80
2018-09-13T16:04:46.528Z,55.00
2018-09-13T16:07:18.065Z,55.20
2018-09-13T16:09:49.636Z,55.70
2018-09-13T16:12:21.343Z,55.80
2018-09-13T16:14:52.738Z,56.10
2018-09-13T16:17:24.037Z,56.50
2018-09-13T16:19:55.580Z,56.70
2018-09-13T16:22:26.945Z,57.00
2018-09-13T16:24:58.640Z,57.20
2018-09-13T16:27:30.051Z,57.40
2018-09-13T16:30:01.397Z,58.00
2018-09-13T16:32:32.632Z,58.10
2018-09-13T16:35:03.822Z,58.50
2018-09-13T16:37:40.010Z,58.70
2018-09-13T16:40:16.294Z,59.20
2018-09-13T16:42:55.692Z,60.40
2018-09-13T16:45:30.905Z,61.20
2018-09-13T16:48:03.594Z,61.50
2018-09-13T16:50:34.604Z,61.60
2018-09-13T16:53:05.718Z,61.90
2018-09-13T16:55:36.884Z,61.90
2018-09-13T16:58:08.098Z,61.80
2018-09-13T17:00:39.165Z,62.10
2018-09-13T17:03:10.380Z,62.50
2018-09-13T17:05:41.520Z,63.60
2018-09-13T17:08:12.570Z,63.20
2018-09-13T17:10:43.818Z,63.40
2018-09-13T17:13:15.053Z,63.80
2018-09-13T17:15:46.256Z,64.00
2018-09-13T17:18:17.920Z,64.50
2018-09-13T17:20:49.121Z,64.90
2018-09-13T17:23:20.172Z,65.50
2018-09-13T17:25:51.425Z,66.00
2018-09-13T17:28:22.802Z,66.20
2018-09-13T17:30:54.156Z,66.40
2018-09-13T17:33:25.325Z,66.50
2018-09-13T17:35:56.738Z,66.80
2018-09-13T17:38:27.911Z,67.10
2018-09-13T17:40:59.178Z,67.30
2018-09-13T17:43:30.495Z,67.70
2018-09-13T17:46:01.675Z,67.90
2018-09-13T17:48:32.829Z,68.10
2018-09-13T17:51:04.008Z,68.80
2018-09-13T17:53:35.300Z,69.20
2018-09-13T17:56:06.402Z,69.40
2018-09-13T17:58:37.704Z,69.90
2018-09-13T18:01:08.856Z,70.30
2018-09-13T18:03:40.253Z,70.70
2018-09-13T18:06:11.406Z,71.00
2018-09-13T18:08:42.643Z,70.70
2018-09-13T18:11:13.714Z,70.70
2018-09-13T18:13:44.789Z,71.00
2018-09-13T18:16:15.810Z,71.60
2018-09-13T18:18:46.809Z,71.60
2018-09-13T18:21:18.071Z,71.50
2018-09-13T18:23:49.209Z,71.50
2018-09-13T18:26:20.262Z,72.10
2018-09-13T18:28:51.547Z,72.00
2018-09-13T18:31:22.894Z,72.00
2018-09-13T18:33:53.960Z,72.10
2018-09-13T18:36:25.249Z,72.50
2018-09-13T18:38:56.415Z,73.10
2018-09-13T18:41:27.853Z,73.40
2018-09-13T18:43:58.790Z,74.00
2018-09-13T18:46:29.980Z,74.20
2018-09-13T18:49:01.181Z,74.40
2018-09-13T18:51:32.388Z,74.70
2018-09-13T18:54:03.737Z,74.80
2018-09-13T18:56:34.885Z,74.80
2018-09-13T18:59:06.191Z,75.10
2018-09-13T19:01:37.240Z,75.40
2018-09-13T19:04:08.955Z,75.40
2018-09-13T19:06:40.339Z,75.30
2018-09-13T19:09:11.971Z,75.40
2018-09-13T19:11:43.193Z,75.50
2018-09-13T19:14:14.457Z,75.80
2018-09-13T19:16:45.537Z,75.90
2018-09-13T19:19:16.544Z,76.40
2018-09-13T19:21:47.798Z,77.10
2018-09-13T19:24:18.872Z,77.50
2018-09-13T19:26:49.996Z,77.60
2018-09-13T19:29:21.217Z,77.80
2018-09-13T19:31:52.229Z,78.00
2018-09-13T19:34:23.366Z,78.30
2018-09-13T19:36:54.450Z,78.80
2018-09-13T19:39:25.479Z,79.20
2018-09-13T19:41:56.822Z,79.60
2018-09-13T19:44:27.863Z,80.00
2018-09-13T19:46:58.867Z,80.70
2018-09-13T19:49:31.508Z,81.40
2018-09-13T19:52:03.072Z,81.80
2018-09-13T19:54:34.370Z,82.00
2018-09-13T19:57:05.703Z,82.30
2018-09-13T19:59:36.779Z,82.00
2018-09-13T20:02:08.025Z,81.90
2018-09-13T20:04:39.229Z,81.40
2018-09-13T20:07:10.401Z,80.80
2018-09-13T20:09:41.570Z,81.30
2018-09-13T20:12:12.553Z,81.90
2018-09-13T20:14:44.319Z,82.50
2018-09-13T20:17:15.762Z,82.80
2018-09-13T20:19:47.001Z,82.90
2018-09-13T20:22:17.973Z,82.80
2018-09-13T20:24:49.145Z,82.40
2018-09-13T20:27:20.300Z,83.20
2018-09-13T20:29:51.461Z,83.20
2018-09-13T20:32:22.531Z,83.20
2018-09-13T20:34:53.772Z,83.00
2018-09-13T20:37:24.843Z,83.00
2018-09-13T20:39:55.721Z,83.40
2018-09-13T20:42:26.728Z,84.10
2018-09-13T20:44:57.735Z,84.20
2018-09-13T20:47:28.560Z,84.40
2018-09-13T20:49:59.505Z,84.30
2018-09-13T20:52:30.956Z,84.30
2018-09-13T20:55:01.919Z,84.00
2018-09-13T20:57:32.770Z,84.80
2018-09-13T21:00:03.833Z,83.90
2018-09-13T21:02:34.996Z,84.40
2018-09-13T21:05:07.708Z,83.40
2018-09-13T21:07:38.658Z,83.30
2018-09-13T21:10:09.732Z,83.60
2018-09-13T21:12:40.863Z,84.00
2018-09-13T21:15:11.721Z,84.30
2018-09-13T21:17:43.751Z,84.30
2018-09-13T21:20:14.975Z,84.70
2018-09-13T21:22:46.110Z,84.50
2018-09-13T21:25:17.225Z,84.70
2018-09-13T21:27:48.387Z,84.90
2018-09-13T21:30:19.629Z,85.30
2018-09-13T21:32:50.728Z,85.30
2018-09-13T21:35:21.765Z,85.20
2018-09-13T21:37:52.681Z,85.60
2018-09-13T21:40:23.564Z,85.50
2018-09-13T21:42:54.691Z,85.30
2018-09-13T21:45:25.603Z,85.30
2018-09-13T21:47:56.429Z,85.10
2018-09-13T21:50:27.284Z,85.10
2018-09-13T21:52:58.251Z,84.90
2018-09-13T21:55:29.290Z,85.00
2018-09-13T21:58:00.530Z,84.70
2018-09-13T22:00:31.617Z,84.60
2018-09-13T22:03:02.578Z,84.90
2018-09-13T22:05:33.437Z,85.00
2018-09-13T22:08:04.364Z,85.40
2018-09-13T22:10:35.126Z,85.90
2018-09-13T22:13:06.057Z,86.00
2018-09-13T22:15:36.951Z,86.40
2018-09-13T22:18:07.948Z,86.60
2018-09-13T22:20:38.886Z,87.40
2018-09-13T22:23:09.696Z,87.50
2018-09-13T22:25:40.532Z,87.60
2018-09-13T22:28:11.297Z,87.10
2018-09-13T22:30:42.161Z,86.80
2018-09-13T22:33:13.002Z,86.80
2018-09-13T22:35:43.829Z,86.90
2018-09-13T22:38:14.593Z,87.30
2018-09-13T22:40:45.760Z,87.60
2018-09-13T22:43:16.568Z,87.70
2018-09-13T22:45:47.728Z,87.90
2018-09-13T22:48:18.529Z,87.90
2018-09-13T22:50:49.330Z,87.30
2018-09-13T22:53:20.482Z,86.70
2018-09-13T22:55:51.437Z,86.70
2018-09-13T22:58:22.576Z,86.70
2018-09-13T23:00:57.322Z,87.00
2018-09-13T23:03:28.391Z,87.40
2018-09-13T23:05:59.216Z,87.80
2018-09-13T23:08:30.039Z,88.00
2018-09-13T23:11:00.931Z,88.40
2018-09-13T23:13:31.806Z,88.30
2018-09-13T23:16:02.788Z,89.20
2018-09-13T23:18:33.592Z,90.00
2018-09-13T23:21:04.354Z,89.60
2018-09-13T23:23:35.179Z,89.20
2018-09-13T23:26:06.034Z,88.60
2018-09-13T23:28:37.021Z,88.20
2018-09-13T23:31:07.917Z,88.10
2018-09-13T23:33:38.876Z,88.10
2018-09-13T23:36:09.616Z,88.10
2018-09-13T23:38:40.553Z,88.20
2018-09-13T23:41:11.486Z,88.30
2018-09-13T23:43:42.254Z,88.60
2018-09-13T23:46:13.330Z,89.10
2018-09-13T23:48:44.090Z,88.90
2018-09-13T23:51:14.881Z,88.40
2018-09-13T23:53:45.798Z,88.40
2018-09-13T23:56:16.619Z,89.50
2018-09-13T23:58:47.553Z,88.80
